Time;durP1;ratioP1;P1;durP2;ratioP2;P2;SDS_P1;SDS_P2;PMS_P1;PMS_P2;Temp;Humidity;BMP_temperature;BMP_pressure;BME280_temperature;BME280_humidity;BME280_pressure;Samples;Min_cycle;Max_cycle;Signal;HPM_P1;HPM_P2
2022/04/07 00:00:18;;;;;;;11.02;4.25;;;9.60;99.90;;;;;;5052860;28;20504;-44
2022/04/07 00:02:45;;;;;;;11.88;3.65;;;9.70;99.90;;;;;;5052775;28;20045;-45
2022/04/07 00:05:12;;;;;;;12.55;4.13;;;9.60;99.90;;;;;;5053281;28;20044;-44
2022/04/07 00:07:38;;;;;;;11.30;4.55;;;9.60;99.90;;;;;;5051769;28;20072;-45
2022/04/07 00:10:05;;;;;;;13.70;4.30;;;9.60;99.90;;;;;;5052802;28;20047;-44
2022/04/07 00:12:33;;;;;;;18.40;4.55;;;9.60;99.90;;;;;;5050170;28;20049;-45
2022/04/07 00:15:00;;;;;;;12.27;4.40;;;9.50;99.90;;;;;;5052318;28;20140;-44
2022/04/07 00:17:28;;;;;;;11.27;3.88;;;9.50;99.90;;;;;;5051125;28;20059;-44
2022/04/07 00:19:55;;;;;;;15.02;4.68;;;9.50;99.90;;;;;;5052951;28;20049;-45
2022/04/07 00:22:22;;;;;;;13.43;4.70;;;9.50;99.90;;;;;;5052871;28;20049;-43
2022/04/07 00:24:48;;;;;;;16.15;4.13;;;9.50;99.90;;;;;;5051543;28;20092;-43
2022/04/07 00:27:16;;;;;;;17.25;5.07;;;9.50;99.90;;;;;;5051425;28;20052;-43
2022/04/07 00:29:42;;;;;;;15.13;5.00;;;9.40;99.90;;;;;;5051040;28;20047;-44
2022/04/07 00:32:09;;;;;;;17.80;5.25;;;9.40;99.90;;;;;;5043570;28;20093;-44
2022/04/07 00:34:39;;;;;;;12.70;4.40;;;9.40;99.90;;;;;;5042827;28;20052;-43
2022/04/07 00:37:05;;;;;;;14.80;4.63;;;9.40;99.90;;;;;;5043201;28;20430;-44
2022/04/07 00:39:32;;;;;;;9.60;3.42;;;9.40;99.90;;;;;;5050386;28;20394;-43
2022/04/07 00:41:59;;;;;;;5.00;1.50;;;9.30;99.90;;;;;;5051303;28;20045;-45
2022/04/07 00:44:27;;;;;;;3.25;1.10;;;9.20;99.90;;;;;;5050936;28;20052;-43
2022/04/07 00:46:54;;;;;;;3.50;0.90;;;9.10;99.90;;;;;;5051785;28;20052;-44
2022/04/07 00:49:21;;;;;;;4.72;1.10;;;9.00;99.90;;;;;;5051271;28;20041;-44
2022/04/07 00:51:50;;;;;;;6.65;2.33;;;9.00;99.90;;;;;;5050674;28;20059;-45
2022/04/07 00:54:16;;;;;;;7.07;2.47;;;8.90;99.90;;;;;;5037845;28;20057;-45
2022/04/07 00:56:43;;;;;;;8.93;3.25;;;8.90;99.90;;;;;;5052287;28;20127;-44
2022/04/07 00:59:10;;;;;;;10.20;3.72;;;8.90;99.90;;;;;;5034208;28;20056;-44
2022/04/07 01:01:36;;;;;;;7.93;3.58;;;8.90;99.90;;;;;;5048579;28;20548;-45
2022/04/07 01:04:03;;;;;;;9.30;3.78;;;9.00;99.90;;;;;;5050257;28;20048;-44
2022/04/07 01:06:30;;;;;;;13.85;5.28;;;9.00;99.90;;;;;;5041941;28;20076;-45
2022/04/07 01:08:58;;;;;;;15.65;6.13;;;9.00;99.90;;;;;;5051190;28;20080;-45
2022/04/07 01:11:25;;;;;;;13.50;6.43;;;9.00;99.90;;;;;;5050964;28;20099;-45
2022/04/07 01:13:52;;;;;;;12.02;5.85;;;9.00;99.90;;;;;;5050538;28;20063;-45
2022/04/07 01:16:19;;;;;;;15.40;6.68;;;9.00;99.90;;;;;;5051297;28;20049;-45
2022/04/07 01:18:46;;;;;;;16.38;7.20;;;9.10;99.90;;;;;;5041298;28;20497;-46
2022/04/07 01:21:14;;;;;;;16.33;7.13;;;9.10;99.90;;;;;;5052352;28;20413;-44
2022/04/07 01:23:42;;;;;;;14.93;7.30;;;9.10;99.90;;;;;;5052397;28;20045;-45
2022/04/07 01:26:10;;;;;;;15.07;6.90;;;9.10;99.90;;;;;;5051478;28;20127;-43
2022/04/07 01:28:37;;;;;;;17.02;7.40;;;9.10;99.90;;;;;;5049981;28;20064;-45
2022/04/07 01:31:04;;;;;;;13.85;7.13;;;9.10;99.90;;;;;;5036629;28;20041;-45
2022/04/07 01:33:32;;;;;;;17.30;6.72;;;9.10;99.90;;;;;;5047460;28;20139;-44
2022/04/07 01:35:59;;;;;;;16.30;7.00;;;9.20;99.90;;;;;;5051660;28;20056;-44
2022/04/07 01:38:26;;;;;;;14.48;6.25;;;9.10;99.90;;;;;;5051086;28;20082;-45
2022/04/07 01:40:52;;;;;;;18.30;6.70;;;9.20;99.90;;;;;;5054011;28;20083;-44
2022/04/07 01:43:20;;;;;;;12.82;5.82;;;9.20;99.90;;;;;;5054466;28;20382;-42
2022/04/07 01:45:47;;;;;;;17.25;5.43;;;9.20;99.90;;;;;;5055026;28;20059;-44
2022/04/07 01:48:14;;;;;;;16.85;5.38;;;9.20;99.90;;;;;;5053595;28;20486;-45
2022/04/07 01:50:41;;;;;;;12.45;4.75;;;9.20;99.90;;;;;;5053249;28;20041;-43
2022/04/07 01:53:07;;;;;;;13.68;4.93;;;9.20;99.90;;;;;;5045468;28;20057;-44
2022/04/07 01:55:34;;;;;;;13.32;4.55;;;9.20;99.90;;;;;;5045299;28;20516;-43
2022/04/07 01:58:01;;;;;;;13.68;4.30;;;9.20;99.90;;;;;;5055900;28;20131;-43
2022/04/07 02:00:29;;;;;;;14.23;4.15;;;9.10;99.90;;;;;;5055097;28;20081;-44
2022/04/07 02:02:55;;;;;;;13.52;3.92;;;9.10;99.90;;;;;;5053870;28;20135;-44
2022/04/07 02:05:22;;;;;;;13.05;3.53;;;9.10;99.90;;;;;;5053390;28;20064;-44
2022/04/07 02:07:49;;;;;;;12.73;3.45;;;9.20;99.90;;;;;;5053173;28;20568;-44
2022/04/07 02:10:16;;;;;;;14.07;4.20;;;9.10;99.90;;;;;;5055405;28;20132;-44
2022/04/07 02:12:43;;;;;;;11.55;3.38;;;9.10;99.90;;;;;;5055375;28;20128;-45
2022/04/07 02:15:10;;;;;;;15.30;3.80;;;9.10;99.90;;;;;;5055345;28;20068;-44
2022/04/07 02:17:38;;;;;;;11.25;3.50;;;9.10;99.90;;;;;;5054557;28;20041;-44
2022/04/07 02:20:06;;;;;;;15.00;3.92;;;9.10;99.90;;;;;;5054146;28;20063;-44
2022/04/07 02:22:33;;;;;;;17.50;4.20;;;9.10;99.90;;;;;;5053951;28;20049;-45
2022/04/07 02:25:00;;;;;;;15.50;3.83;;;9.10;99.90;;;;;;5054995;28;20047;-43
2022/04/07 02:27:33;;;;;;;15.43;3.78;;;9.10;99.90;;;;;;5043358;28;20053;-45
2022/04/07 02:30:00;;;;;;;23.25;3.90;;;9.10;99.90;;;;;;5051368;28;20400;-44
2022/04/07 02:32:28;;;;;;;15.13;4.10;;;9.10;99.90;;;;;;5046374;28;20045;-46
2022/04/07 02:34:56;;;;;;;16.75;4.18;;;9.10;99.90;;;;;;5054894;28;20045;-44
2022/04/07 02:37:25;;;;;;;19.20;3.85;;;9.10;99.90;;;;;;5053239;28;20443;-44
2022/04/07 02:39:51;;;;;;;17.95;4.72;;;9.10;99.90;;;;;;5054999;28;20131;-45
2022/04/07 02:42:18;;;;;;;18.10;3.97;;;9.10;99.90;;;;;;5054358;28;20045;-44
2022/04/07 02:44:45;;;;;;;17.70;4.18;;;9.10;99.90;;;;;;5054617;28;20136;-44
2022/04/07 02:47:12;;;;;;;17.92;4.32;;;9.10;99.90;;;;;;5044907;28;20374;-45
2022/04/07 02:49:39;;;;;;;15.38;3.95;;;9.10;99.90;;;;;;5051132;28;20067;-44
2022/04/07 02:52:08;;;;;;;18.90;4.20;;;9.10;99.90;;;;;;5051183;28;20080;-46
2022/04/07 02:54:35;;;;;;;13.38;3.92;;;9.10;99.90;;;;;;5054366;28;20048;-45
2022/04/07 02:57:02;;;;;;;22.35;4.80;;;9.10;99.90;;;;;;5054764;28;20048;-44
2022/04/07 02:59:29;;;;;;;20.17;3.78;;;9.00;99.90;;;;;;5050527;28;20414;-44
2022/04/07 03:01:56;;;;;;;19.25;4.10;;;9.10;99.90;;;;;;5049576;28;20041;-44
2022/04/07 03:04:24;;;;;;;18.15;4.43;;;9.00;99.90;;;;;;5050673;28;20079;-44
2022/04/07 03:06:51;;;;;;;17.48;3.30;;;9.00;99.90;;;;;;5053297;28;20056;-46
2022/04/07 03:09:19;;;;;;;18.33;3.85;;;9.00;99.90;;;;;;5053364;28;20053;-43
2022/04/07 03:11:47;;;;;;;21.58;4.38;;;9.10;99.90;;;;;;5045884;28;20103;-43
2022/04/07 03:14:13;;;;;;;22.38;4.53;;;9.10;99.90;;;;;;5052387;28;20053;-45
2022/04/07 03:16:40;;;;;;;19.98;3.90;;;9.10;99.90;;;;;;5054028;28;20144;-44
2022/04/07 03:19:07;;;;;;;15.38;3.53;;;9.10;99.90;;;;;;5053167;28;20071;-44
2022/04/07 03:21:33;;;;;;;15.82;3.60;;;9.10;99.90;;;;;;5047849;28;20391;-46
2022/04/07 03:24:00;;;;;;;17.83;3.70;;;9.00;99.90;;;;;;5053163;28;20053;-44
2022/04/07 03:26:28;;;;;;;13.60;3.33;;;9.00;99.90;;;;;;5047906;28;20053;-44
2022/04/07 03:28:55;;;;;;;11.38;2.67;;;9.00;99.90;;;;;;5053610;28;20049;-44
2022/04/07 03:31:22;;;;;;;13.23;3.17;;;9.00;99.90;;;;;;5055532;28;20504;-45
2022/04/07 03:33:48;;;;;;;14.75;3.10;;;9.00;99.90;;;;;;5052119;28;20072;-43
2022/04/07 03:36:15;;;;;;;17.00;3.10;;;9.00;99.90;;;;;;5037476;28;20056;-44
2022/04/07 03:38:42;;;;;;;15.50;2.83;;;8.90;99.90;;;;;;5042482;28;20413;-44
2022/04/07 03:41:08;;;;;;;11.80;2.70;;;8.90;99.90;;;;;;5049465;28;20041;-44
2022/04/07 03:43:36;;;;;;;13.18;3.03;;;8.80;99.90;;;;;;5051225;28;20055;-44
2022/04/07 03:46:03;;;;;;;11.50;2.78;;;8.90;99.90;;;;;;5052682;28;20175;-44
2022/04/07 03:48:30;;;;;;;13.38;3.38;;;9.00;99.90;;;;;;5052480;28;20060;-43
2022/04/07 03:50:57;;;;;;;12.35;3.00;;;8.90;99.90;;;;;;5052104;28;20131;-45
2022/04/07 03:53:23;;;;;;;13.93;3.35;;;8.90;99.90;;;;;;5050699;28;20056;-44
2022/04/07 03:55:50;;;;;;;17.10;3.55;;;8.90;99.90;;;;;;5053509;28;20292;-44
2022/04/07 03:58:17;;;;;;;18.48;4.03;;;8.90;99.90;;;;;;5053272;28;20420;-44
2022/04/07 04:00:45;;;;;;;18.25;3.90;;;8.90;99.90;;;;;;5051708;28;20051;-45
2022/04/07 04:03:12;;;;;;;17.75;3.72;;;8.90;99.90;;;;;;5048405;28;20049;-44
2022/04/07 04:05:38;;;;;;;18.15;4.65;;;8.90;99.90;;;;;;5068479;28;20485;-45
2022/04/07 04:08:06;;;;;;;18.02;3.92;;;8.90;99.90;;;;;;5053387;28;20268;-44
2022/04/07 04:10:32;;;;;;;21.17;4.43;;;8.90;99.90;;;;;;5041269;28;20128;-45
2022/04/07 04:12:59;;;;;;;16.42;4.22;;;8.90;99.90;;;;;;5043658;28;20055;-46
2022/04/07 04:15:26;;;;;;;29.38;6.30;;;8.90;99.90;;;;;;5052216;28;20041;-45
2022/04/07 04:17:54;;;;;;;23.77;5.18;;;8.90;99.90;;;;;;5050501;28;20045;-48
2022/04/07 04:20:20;;;;;;;20.15;4.65;;;8.90;99.90;;;;;;5051217;28;20044;-44
2022/04/07 04:22:47;;;;;;;26.58;5.50;;;8.90;99.90;;;;;;5049070;28;20416;-44
2022/04/07 04:25:14;;;;;;;36.55;5.35;;;8.90;99.90;;;;;;5048688;28;20248;-43
2022/04/07 04:27:41;;;;;;;28.10;5.18;;;8.90;99.90;;;;;;5051803;28;21877;-44
2022/04/07 04:30:09;;;;;;;32.05;5.07;;;8.90;99.90;;;;;;5050291;28;20049;-43
2022/04/07 04:32:36;;;;;;;27.63;5.15;;;8.90;99.90;;;;;;5050931;28;20099;-44
2022/04/07 04:35:05;;;;;;;26.33;5.18;;;8.90;99.90;;;;;;5051504;28;20059;-45
2022/04/07 04:37:32;;;;;;;37.53;6.10;;;8.90;99.90;;;;;;5050100;28;20060;-43
2022/04/07 04:39:58;;;;;;;30.10;6.97;;;8.90;99.90;;;;;;5050640;28;20519;-45
2022/04/07 04:42:25;;;;;;;31.90;5.32;;;8.90;99.90;;;;;;5048395;28;20092;-45
2022/04/07 04:44:52;;;;;;;29.98;4.90;;;8.90;99.90;;;;;;5049324;28;20493;-44
2022/04/07 04:47:19;;;;;;;34.28;5.22;;;8.90;99.90;;;;;;5043955;28;20049;-45
2022/04/07 04:49:45;;;;;;;27.15;5.22;;;8.90;99.90;;;;;;5050671;28;20076;-46
2022/04/07 04:52:13;;;;;;;33.20;4.88;;;9.00;99.90;;;;;;5051117;28;20048;-45
2022/04/07 04:54:40;;;;;;;24.23;5.05;;;8.90;99.90;;;;;;5050821;28;20061;-45
2022/04/07 04:57:07;;;;;;;33.08;4.90;;;9.00;99.90;;;;;;5050303;28;20081;-45
2022/04/07 04:59:34;;;;;;;35.08;5.45;;;8.90;99.90;;;;;;5051355;28;20053;-44
2022/04/07 05:02:00;;;;;;;37.38;6.13;;;8.90;99.90;;;;;;5051933;28;20387;-44
2022/04/07 05:04:27;;;;;;;26.75;4.90;;;8.90;99.90;;;;;;5050043;28;20053;-44
2022/04/07 05:06:54;;;;;;;27.33;5.32;;;8.90;99.90;;;;;;5048821;28;20050;-44
2022/04/07 05:09:22;;;;;;;29.13;5.43;;;8.90;99.90;;;;;;5042482;28;20064;-44
2022/04/07 05:11:48;;;;;;;35.03;5.30;;;8.80;99.90;;;;;;5038615;28;20046;-45
2022/04/07 05:14:15;;;;;;;24.67;5.28;;;8.80;99.90;;;;;;5042310;28;20048;-44
2022/04/07 05:16:42;;;;;;;31.90;6.13;;;8.80;99.90;;;;;;5040802;28;20467;-44
2022/04/07 05:19:08;;;;;;;23.17;5.15;;;8.80;99.90;;;;;;5039227;28;20057;-43
2022/04/07 05:21:35;;;;;;;29.27;5.85;;;8.80;99.90;;;;;;5040414;28;20041;-43
2022/04/07 05:24:02;;;;;;;30.98;9.93;;;8.70;99.90;;;;;;5050861;28;20057;-44
2022/04/07 05:26:30;;;;;;;28.98;7.35;;;8.70;99.90;;;;;;5051579;28;20045;-44
2022/04/07 05:28:57;;;;;;;24.35;6.65;;;8.70;99.90;;;;;;5050725;28;20061;-43
2022/04/07 05:31:23;;;;;;;32.17;7.68;;;8.80;99.90;;;;;;5050527;28;20077;-43
2022/04/07 05:33:50;;;;;;;23.63;6.70;;;8.70;99.90;;;;;;5051712;28;20413;-44
2022/04/07 05:36:17;;;;;;;25.75;6.13;;;8.70;99.90;;;;;;5050586;28;20247;-43
2022/04/07 05:38:44;;;;;;;22.33;5.85;;;8.70;99.90;;;;;;5066979;28;20159;-44
2022/04/07 05:41:11;;;;;;;19.95;5.57;;;8.70;99.90;;;;;;5067389;28;20052;-44
2022/04/07 05:43:39;;;;;;;15.55;5.35;;;8.70;99.90;;;;;;5042452;28;20056;-45
2022/04/07 05:46:05;;;;;;;22.80;6.38;;;8.80;99.90;;;;;;5049582;28;20045;-46
2022/04/07 05:48:32;;;;;;;23.50;5.72;;;8.80;99.90;;;;;;5050981;28;20049;-43
2022/04/07 05:50:59;;;;;;;24.50;5.97;;;8.80;99.90;;;;;;5049928;28;20460;-45
2022/04/07 05:53:26;;;;;;;6.43;1.45;;;8.80;99.90;;;;;;5051303;28;20246;-45
2022/04/07 05:55:53;;;;;;;4.78;0.70;;;8.60;99.90;;;;;;5049709;28;20052;-45
2022/04/07 05:58:20;;;;;;;2.20;0.52;;;8.20;99.90;;;;;;5050267;28;20053;-45
2022/04/07 06:00:48;;;;;;;1.77;0.70;;;7.70;99.90;;;;;;5051402;28;20049;-45
2022/04/07 06:03:14;;;;;;;2.53;0.75;;;7.40;99.90;;;;;;5051282;28;20150;-46
2022/04/07 06:05:41;;;;;;;5.47;0.73;;;7.20;99.90;;;;;;5051117;28;20087;-46
2022/04/07 06:08:08;;;;;;;2.80;0.90;;;6.90;99.90;;;;;;5051275;28;20485;-45
2022/04/07 06:10:36;;;;;;;4.90;0.80;;;6.80;99.90;;;;;;5051012;28;20091;-45
2022/04/07 06:13:02;;;;;;;4.18;1.02;;;6.60;99.90;;;;;;5050559;28;20067;-46
2022/04/07 06:15:29;;;;;;;5.93;1.35;;;6.50;99.90;;;;;;5051010;28;20053;-45
2022/04/07 06:17:58;;;;;;;7.07;1.33;;;6.40;99.90;;;;;;5050874;28;20099;-45
2022/04/07 06:20:24;;;;;;;9.23;1.60;;;6.40;99.90;;;;;;5050235;28;20073;-45
2022/04/07 06:22:51;;;;;;;5.85;1.67;;;6.30;99.90;;;;;;5051396;28;20045;-44
2022/04/07 06:25:18;;;;;;;5.57;1.42;;;6.20;99.90;;;;;;5050346;28;20059;-43
2022/04/07 06:27:45;;;;;;;7.43;1.38;;;6.20;99.90;;;;;;5053902;28;20291;-44
2022/04/07 06:30:13;;;;;;;11.48;1.67;;;6.20;99.90;;;;;;5053941;28;20049;-44
2022/04/07 06:32:40;;;;;;;4.93;1.10;;;6.20;99.90;;;;;;5052255;28;20092;-44
2022/04/07 06:35:09;;;;;;;7.32;1.13;;;6.10;99.90;;;;;;5054647;28;20123;-44
2022/04/07 06:37:45;;;;;;;6.40;1.38;;;6.10;99.90;;;;;;5054597;28;20045;-44
2022/04/07 06:40:12;;;;;;;5.63;1.13;;;6.10;99.90;;;;;;5054420;28;20049;-43
2022/04/07 06:42:41;;;;;;;10.13;1.48;;;6.10;99.90;;;;;;5052521;28;20146;-43
2022/04/07 06:45:08;;;;;;;6.25;1.10;;;6.10;99.90;;;;;;5052850;28;20045;-45
2022/04/07 06:47:37;;;;;;;8.82;1.38;;;6.10;99.90;;;;;;5053346;28;20051;-45
2022/04/07 06:50:04;;;;;;;5.53;1.67;;;6.10;99.90;;;;;;5054479;28;20049;-45
2022/04/07 06:52:32;;;;;;;5.45;0.80;;;6.10;99.90;;;;;;5054227;28;20049;-44
2022/04/07 06:54:59;;;;;;;3.35;1.00;;;6.10;99.90;;;;;;5053657;28;20057;-43
2022/04/07 06:57:26;;;;;;;4.78;1.17;;;6.10;99.90;;;;;;5053326;28;20059;-44
2022/04/07 06:59:53;;;;;;;3.83;1.00;;;6.20;99.90;;;;;;5051670;28;20508;-46
2022/04/07 07:02:19;;;;;;;2.90;1.20;;;6.20;99.90;;;;;;5051826;28;20118;-44
2022/04/07 07:04:46;;;;;;;15.02;1.25;;;6.10;99.90;;;;;;5034668;28;20056;-45
2022/04/07 07:07:13;;;;;;;5.18;1.05;;;6.10;99.90;;;;;;5052783;28;20051;-44
2022/04/07 07:09:41;;;;;;;3.92;0.80;;;6.10;99.90;;;;;;5053901;28;20045;-45
2022/04/07 07:12:08;;;;;;;5.03;0.90;;;6.10;99.90;;;;;;5053155;28;20128;-45
2022/04/07 07:14:35;;;;;;;3.25;1.33;;;6.10;99.90;;;;;;5052762;28;20157;-44
2022/04/07 07:17:02;;;;;;;3.67;0.82;;;6.10;99.90;;;;;;5052470;28;20051;-44
2022/04/07 07:19:28;;;;;;;5.88;0.88;;;6.10;99.90;;;;;;5050337;28;20581;-45
2022/04/07 07:21:56;;;;;;;5.10;1.10;;;6.10;99.90;;;;;;5041722;28;20124;-44
2022/04/07 07:24:22;;;;;;;14.10;7.07;;;6.10;99.90;;;;;;5052035;28;20727;-45
2022/04/07 07:26:50;;;;;;;3.22;1.60;;;6.10;99.90;;;;;;5053542;28;20075;-44
2022/04/07 07:29:17;;;;;;;4.75;1.17;;;6.10;99.90;;;;;;5052922;28;20111;-44
2022/04/07 07:31:44;;;;;;;4.78;1.10;;;6.10;99.90;;;;;;5052447;28;20488;-44
2022/04/07 07:34:11;;;;;;;5.65;1.27;;;6.10;99.90;;;;;;5052749;28;20421;-44
2022/04/07 07:36:37;;;;;;;5.25;0.90;;;6.20;99.90;;;;;;5039895;28;20049;-44
2022/04/07 07:39:04;;;;;;;8.40;1.08;;;6.10;99.90;;;;;;5033343;28;20507;-44
2022/04/07 07:41:31;;;;;;;4.03;0.90;;;6.20;99.90;;;;;;5044498;28;20051;-44
2022/04/07 07:43:59;;;;;;;3.88;1.10;;;6.10;99.90;;;;;;5052026;28;20124;-44
2022/04/07 07:46:29;;;;;;;8.63;1.17;;;6.20;99.90;;;;;;5039291;28;20060;-43
2022/04/07 07:48:58;;;;;;;5.47;1.33;;;6.20;99.90;;;;;;5049620;28;20095;-43
2022/04/07 07:51:25;;;;;;;4.38;1.10;;;6.20;99.90;;;;;;5047563;28;20477;-45
2022/04/07 07:53:52;;;;;;;5.00;2.55;;;6.20;99.90;;;;;;5049860;28;20053;-44
2022/04/07 07:56:18;;;;;;;21.80;10.13;;;6.20;99.90;;;;;;5048772;28;20051;-42
2022/04/07 07:58:45;;;;;;;6.47;1.80;;;6.20;99.90;;;;;;5042437;28;20435;-44
2022/04/07 08:01:14;;;;;;;6.95;1.48;;;6.20;99.90;;;;;;5050157;28;20076;-45
2022/04/07 08:03:40;;;;;;;7.25;1.45;;;6.20;99.90;;;;;;5047246;28;20052;-45
2022/04/07 08:06:07;;;;;;;5.63;1.52;;;6.20;99.90;;;;;;5032835;28;20424;-46
2022/04/07 08:08:34;;;;;;;4.68;1.23;;;6.30;99.90;;;;;;5034415;28;20153;-45
2022/04/07 08:11:01;;;;;;;4.45;1.00;;;6.30;99.90;;;;;;5049421;28;20049;-45
2022/04/07 08:13:27;;;;;;;5.28;1.38;;;6.40;99.90;;;;;;5052560;28;20055;-44
2022/04/07 08:15:54;;;;;;;8.50;2.30;;;6.40;99.90;;;;;;5050753;28;20409;-44
2022/04/07 08:18:23;;;;;;;3.78;1.30;;;6.40;99.90;;;;;;5047237;28;20045;-45
2022/04/07 08:20:49;;;;;;;12.27;3.40;;;6.40;99.90;;;;;;5044100;28;20087;-45
2022/04/07 08:23:16;;;;;;;8.02;2.17;;;6.50;99.90;;;;;;5046051;28;20099;-45
2022/04/07 08:25:43;;;;;;;7.00;1.95;;;6.50;99.90;;;;;;5042980;28;20060;-45
2022/04/07 08:28:10;;;;;;;7.13;1.35;;;6.60;99.90;;;;;;5049908;28;20525;-47
2022/04/07 08:30:37;;;;;;;7.40;2.10;;;6.60;99.90;;;;;;5051410;28;20107;-44
2022/04/07 08:33:04;;;;;;;5.30;1.42;;;6.70;99.90;;;;;;5047213;28;20560;-45
2022/04/07 08:35:32;;;;;;;8.13;2.08;;;6.70;99.90;;;;;;5047194;28;20152;-46
2022/04/07 08:37:58;;;;;;;8.77;2.10;;;6.80;99.90;;;;;;5030715;28;20563;-45
2022/04/07 08:40:25;;;;;;;8.27;1.85;;;6.80;99.90;;;;;;5041906;28;20079;-44
2022/04/07 08:42:52;;;;;;;8.18;1.77;;;6.90;99.90;;;;;;5039045;28;20136;-44
2022/04/07 08:45:19;;;;;;;6.90;2.03;;;7.20;99.90;;;;;;5043710;28;20075;-45
2022/04/07 08:47:46;;;;;;;10.00;3.90;;;7.30;99.90;;;;;;5034257;28;20243;-43
2022/04/07 08:50:13;;;;;;;4.35;1.80;;;7.40;99.90;;;;;;5048599;28;20155;-44
2022/04/07 08:52:41;;;;;;;8.75;1.83;;;7.60;99.90;;;;;;5041021;28;20048;-43
2022/04/07 08:55:09;;;;;;;10.02;2.50;;;7.80;99.90;;;;;;5050739;28;20068;-43
2022/04/07 08:57:37;;;;;;;7.28;2.05;;;8.10;99.90;;;;;;5045722;28;20094;-44
2022/04/07 09:00:06;;;;;;;5.60;1.48;;;8.30;99.90;;;;;;5050981;28;20136;-43
2022/04/07 09:02:33;;;;;;;7.22;1.33;;;8.60;99.90;;;;;;5042846;28;20107;-45
2022/04/07 09:04:59;;;;;;;6.68;0.90;;;8.70;99.90;;;;;;5063089;28;20053;-44
2022/04/07 09:07:31;;;;;;;10.18;1.55;;;8.90;99.90;;;;;;5063164;28;20068;-45
2022/04/07 09:10:00;;;;;;;8.18;1.10;;;9.00;99.90;;;;;;5038961;28;20529;-44
2022/04/07 09:12:26;;;;;;;8.73;1.73;;;9.20;99.90;;;;;;5047180;28;20056;-44
2022/04/07 09:14:55;;;;;;;9.48;1.63;;;9.30;99.90;;;;;;5049680;28;20482;-44
2022/04/07 09:17:22;;;;;;;9.93;1.40;;;9.40;99.90;;;;;;5032181;28;20049;-45
2022/04/07 09:19:50;;;;;;;6.32;1.70;;;9.60;99.90;;;;;;5044606;28;20056;-43
2022/04/07 09:22:17;;;;;;;7.55;1.58;;;9.70;99.90;;;;;;5036080;28;20500;-45
2022/04/07 09:24:43;;;;;;;11.63;1.30;;;9.80;99.90;;;;;;5050205;28;20076;-45
2022/04/07 09:27:12;;;;;;;7.15;1.30;;;10.00;99.90;;;;;;5049410;28;20130;-45
2022/04/07 09:29:39;;;;;;;7.80;1.40;;;10.10;99.90;;;;;;5050190;28;20085;-45
2022/04/07 09:32:16;;;;;;;8.45;1.60;;;10.20;99.90;;;;;;5058536;28;20047;-45
2022/04/07 09:34:45;;;;;;;8.60;1.30;;;10.20;99.90;;;;;;5049332;28;20057;-44
2022/04/07 09:37:12;;;;;;;10.77;1.67;;;10.30;99.90;;;;;;5049624;28;20041;-45
2022/04/07 09:39:39;;;;;;;11.20;1.98;;;10.40;99.90;;;;;;5032143;28;20050;-44
2022/04/07 09:42:21;;;;;;;9.73;2.10;;;10.40;99.90;;;;;;5061391;28;20435;-43
2022/04/07 09:44:51;;;;;;;10.57;1.75;;;10.40;99.90;;;;;;5043300;28;20308;-45
2022/04/07 09:47:18;;;;;;;7.20;1.52;;;10.30;99.90;;;;;;5046361;28;20193;-43
2022/04/07 09:49:44;;;;;;;13.00;2.33;;;10.40;99.90;;;;;;5050055;28;20053;-43
2022/04/07 09:52:11;;;;;;;10.23;2.40;;;10.40;99.90;;;;;;5049970;28;20037;-43
2022/04/07 09:54:39;;;;;;;10.93;1.98;;;10.40;99.90;;;;;;5045697;28;20056;-44
2022/04/07 09:57:09;;;;;;;18.27;2.40;;;10.60;99.90;;;;;;5049678;28;20049;-45
2022/04/07 09:59:38;;;;;;;13.55;2.08;;;10.80;99.90;;;;;;5050720;28;20044;-44
2022/04/07 10:02:06;;;;;;;12.07;2.15;;;10.90;99.90;;;;;;5050583;28;20041;-43
2022/04/07 10:04:34;;;;;;;14.90;2.58;;;10.90;99.90;;;;;;5051954;28;20144;-44
2022/04/07 10:07:02;;;;;;;12.57;2.20;;;10.90;99.90;;;;;;5042704;28;20865;-44
2022/04/07 10:09:29;;;;;;;16.17;2.20;;;10.80;99.90;;;;;;5047098;28;20052;-44
2022/04/07 10:11:56;;;;;;;8.02;2.20;;;10.80;99.90;;;;;;5049130;28;20124;-44
2022/04/07 10:14:23;;;;;;;15.15;2.75;;;10.80;99.90;;;;;;5054367;28;20094;-43
2022/04/07 10:16:51;;;;;;;15.25;2.08;;;10.90;99.90;;;;;;5054505;28;20059;-44
2022/04/07 10:19:21;;;;;;;13.43;2.83;;;11.00;99.90;;;;;;5055361;28;20049;-45
2022/04/07 10:21:55;;;;;;;15.90;3.58;;;11.20;99.90;;;;;;5055649;28;20049;-45
2022/04/07 10:24:28;;;;;;;19.85;2.85;;;11.30;99.90;;;;;;5054608;28;20057;-44
2022/04/07 10:26:55;;;;;;;10.57;2.15;;;11.30;99.90;;;;;;5045554;28;20063;-44
2022/04/07 10:29:22;;;;;;;15.98;2.72;;;11.40;99.90;;;;;;5053811;28;20049;-43
2022/04/07 10:32:21;;;;;;;14.27;2.58;;;11.30;99.90;;;;;;5055499;28;20059;-45
2022/04/07 10:34:58;;;;;;;13.15;2.20;;;11.30;99.90;;;;;;5034986;28;20061;-44
2022/04/07 10:37:32;;;;;;;18.10;3.08;;;11.20;99.90;;;;;;5051531;28;20044;-45
2022/04/07 10:40:32;;;;;;;18.77;2.63;;;11.20;99.90;;;;;;5045202;28;20080;-45
2022/04/07 10:43:13;;;;;;;16.25;2.75;;;11.20;99.90;;;;;;5050951;28;20135;-44
2022/04/07 10:45:40;;;;;;;14.88;3.25;;;11.10;99.90;;;;;;5049585;28;20048;-45
2022/04/07 10:48:23;;;;;;;14.18;2.80;;;11.10;99.90;;;;;;5052836;28;20081;-45
2022/04/07 10:50:51;;;;;;;21.02;3.38;;;11.10;99.90;;;;;;5045071;28;20052;-45
2022/04/07 10:53:20;;;;;;;11.02;2.70;;;11.20;99.90;;;;;;5068129;28;20049;-47
2022/04/07 10:56:12;;;;;;;15.27;2.80;;;11.20;99.90;;;;;;5039066;28;20425;-45
2022/04/07 10:58:42;;;;;;;;;;;11.10;99.90;;;;;;5044760;28;20041;-44
2022/04/07 11:01:13;;;;;;;13.70;2.85;;;11.00;99.90;;;;;;5053862;28;19942;-44
2022/04/07 11:03:42;;;;;;;11.93;2.20;;;11.00;99.90;;;;;;5053869;28;20048;-45
2022/04/07 11:06:10;;;;;;;17.30;3.83;;;11.00;99.90;;;;;;5043615;28;20103;-45
2022/04/07 11:08:37;;;;;;;25.13;2.90;;;11.00;99.90;;;;;;5044122;28;20045;-45
2022/04/07 11:11:04;;;;;;;16.40;2.78;;;11.00;99.90;;;;;;5048217;28;20493;-44
2022/04/07 11:13:43;;;;;;;19.60;3.65;;;10.90;99.90;;;;;;5053686;28;20059;-45
2022/04/07 11:16:18;;;;;;;21.65;3.80;;;10.60;99.90;;;;;;5053143;28;20041;-44
2022/04/07 11:18:55;;;;;;;13.02;2.92;;;10.40;99.90;;;;;;5052944;28;20153;-44
2022/04/07 11:21:22;;;;;;;16.15;3.05;;;10.20;99.90;;;;;;5053244;28;20106;-45
2022/04/07 11:23:52;;;;;;;18.98;3.35;;;10.20;99.90;;;;;;5035801;28;20045;-44
2022/04/07 11:26:22;;;;;;;20.10;2.95;;;10.30;99.90;;;;;;5051519;28;20049;-44
2022/04/07 11:32:11;;;;;;;19.35;3.65;;;10.30;99.90;;;;;;5047306;28;20374;-46
2022/04/07 11:34:57;;;;;;;23.02;4.20;;;10.20;99.90;;;;;;5051801;28;20076;-45
2022/04/07 11:37:24;;;;;;;22.38;3.97;;;10.30;99.90;;;;;;5052413;28;20061;-45
2022/04/07 11:39:52;;;;;;;21.02;3.63;;;10.50;99.90;;;;;;5050487;28;20432;-44
2022/04/07 11:42:19;;;;;;;18.17;3.10;;;10.60;99.90;;;;;;5053651;28;20064;-44
2022/04/07 11:44:46;;;;;;;18.17;2.67;;;10.60;99.90;;;;;;5052736;28;20052;-44
2022/04/07 11:47:26;;;;;;;16.08;3.47;;;10.70;99.90;;;;;;5050736;28;21552;-45
2022/04/07 11:49:54;;;;;;;19.67;3.40;;;10.70;99.90;;;;;;5051681;28;20049;-45
2022/04/07 11:52:25;;;;;;;22.83;6.00;;;10.70;99.90;;;;;;5038519;28;20132;-44
2022/04/07 11:54:53;;;;;;;19.87;3.73;;;10.70;99.90;;;;;;5052352;28;20132;-46
2022/04/07 11:57:21;;;;;;;21.08;3.70;;;10.60;99.90;;;;;;5053535;28;20045;-44
2022/04/07 11:59:47;;;;;;;17.30;3.30;;;10.50;99.90;;;;;;5052374;28;20528;-44
2022/04/07 12:02:20;;;;;;;23.13;3.75;;;10.50;99.90;;;;;;5053695;28;20071;-45
2022/04/07 12:04:47;;;;;;;19.88;3.38;;;10.50;99.90;;;;;;5053538;28;20048;-44
2022/04/07 12:07:15;;;;;;;16.33;3.60;;;10.50;99.90;;;;;;5052392;28;20057;-46
2022/04/07 12:09:42;;;;;;;16.95;3.10;;;10.60;99.90;;;;;;5051256;28;20135;-45
2022/04/07 12:12:09;;;;;;;19.00;3.17;;;10.80;99.90;;;;;;5050610;28;20055;-46
2022/04/07 12:14:38;;;;;;;16.35;3.72;;;10.90;99.90;;;;;;5049628;28;20045;-44
2022/04/07 12:17:06;;;;;;;14.50;2.58;;;10.90;99.90;;;;;;5033585;28;20095;-44
2022/04/07 12:19:43;;;;;;;18.10;3.30;;;11.00;99.90;;;;;;5033464;28;20084;-45
2022/04/07 12:22:10;;;;;;;11.82;2.72;;;11.00;99.90;;;;;;5036185;28;20053;-45
2022/04/07 12:24:38;;;;;;;17.83;3.20;;;11.00;99.90;;;;;;5051227;28;20063;-45
2022/04/07 12:27:08;;;;;;;16.02;2.80;;;11.00;99.90;;;;;;5052058;28;20132;-45
2022/04/07 12:29:34;;;;;;;12.95;2.65;;;11.10;99.90;;;;;;5051349;28;20459;-44
2022/04/07 12:32:02;;;;;;;18.15;2.75;;;11.20;99.90;;;;;;5051930;28;20052;-44
2022/04/07 12:34:28;;;;;;;22.67;4.72;;;11.20;99.90;;;;;;5033135;28;20476;-43
2022/04/07 12:36:55;;;;;;;20.98;3.70;;;11.30;99.90;;;;;;5033027;28;20057;-43
2022/04/07 12:39:22;;;;;;;14.43;2.60;;;11.40;99.90;;;;;;5032949;28;20049;-44
2022/04/07 12:41:51;;;;;;;13.73;2.83;;;11.30;99.90;;;;;;5033318;28;20049;-44
2022/04/07 12:44:19;;;;;;;15.15;2.65;;;11.30;99.90;;;;;;5050940;28;20571;-43
2022/04/07 12:46:47;;;;;;;13.25;2.60;;;11.30;99.90;;;;;;5052964;28;20053;-43
2022/04/07 12:49:14;;;;;;;15.88;2.60;;;11.20;99.90;;;;;;5052769;28;20057;-44
2022/04/07 12:51:41;;;;;;;16.10;2.70;;;11.10;99.90;;;;;;5052733;28;20045;-43
2022/04/07 12:54:12;;;;;;;20.58;2.78;;;11.00;99.90;;;;;;5052250;28;20060;-44